createdAt,value
2022-09-20T00:00:57.774Z,5.78
2022-09-20T00:01:57.723Z,5.94
2022-09-20T00:02:57.711Z,6.06
2022-09-20T00:03:57.712Z,5.94
2022-09-20T00:04:57.802Z,6.22
2022-09-20T00:05:57.745Z,6.22
2022-09-20T00:06:57.723Z,6.06
2022-09-20T00:07:57.727Z,6.22
2022-09-20T00:08:57.730Z,6.22
2022-09-20T00:09:57.720Z,6.22
2022-09-20T00:10:57.727Z,5.67
2022-09-20T00:11:57.728Z,6.06
2022-09-20T00:12:57.731Z,6.22
2022-09-20T00:13:57.727Z,6.22
2022-09-20T00:14:57.741Z,6.06
2022-09-20T00:15:57.730Z,6.39
2022-09-20T00:16:57.761Z,6.22
2022-09-20T00:17:57.738Z,6.22
2022-09-20T00:18:57.758Z,6.06
2022-09-20T00:19:57.734Z,5.78
2022-09-20T00:20:57.739Z,5.56
2022-09-20T00:21:57.754Z,5.56
2022-09-20T00:22:57.742Z,5.39
2022-09-20T00:23:57.803Z,5.39
2022-09-20T00:24:57.748Z,5.22
2022-09-20T00:25:57.753Z,5.22
2022-09-20T00:26:57.749Z,5.39
2022-09-20T00:27:57.747Z,5.39
2022-09-20T00:28:57.758Z,5.39
2022-09-20T00:29:57.757Z,5.39
2022-09-20T00:30:57.756Z,5.39
2022-09-20T00:31:57.808Z,5.78
2022-09-20T00:32:57.749Z,5.56
2022-09-20T00:33:57.753Z,5.56
2022-09-20T00:34:57.757Z,5.56
2022-09-20T00:35:57.760Z,5.56
2022-09-20T00:36:57.766Z,5.56
2022-09-20T00:37:57.792Z,5.78
2022-09-20T00:38:57.761Z,5.39
2022-09-20T00:39:57.831Z,5.78
2022-09-20T00:40:57.764Z,5.56
2022-09-20T00:41:57.764Z,5.78
2022-09-20T00:42:57.770Z,5.39
2022-09-20T00:43:57.774Z,5.78
2022-09-20T00:44:57.776Z,5.94
2022-09-20T00:45:57.863Z,5.56
2022-09-20T00:46:57.778Z,5.56
2022-09-20T00:47:57.776Z,5.67
2022-09-20T00:48:57.783Z,5.78
2022-09-20T00:49:57.772Z,5.78
2022-09-20T00:50:57.772Z,5.78
2022-09-20T00:51:57.777Z,5.67
2022-09-20T00:52:57.772Z,5.56
2022-09-20T00:53:57.913Z,5.78
2022-09-20T00:54:57.783Z,6.06
2022-09-20T00:55:57.780Z,6.06
2022-09-20T00:56:57.787Z,5.78
2022-09-20T00:57:57.789Z,5.67
2022-09-20T00:58:57.787Z,5.94
2022-09-20T00:59:57.798Z,5.56
2022-09-20T01:00:57.876Z,5.78
2022-09-20T01:01:57.839Z,5.22
2022-09-20T01:02:57.795Z,5.56
2022-09-20T01:03:57.795Z,5.78
2022-09-20T01:04:57.808Z,5.78
2022-09-20T01:05:57.800Z,5.78
2022-09-20T01:06:57.819Z,5.78
2022-09-20T01:07:57.806Z,5.56
2022-09-20T01:08:57.801Z,5.67
2022-09-20T01:09:57.826Z,5.78
2022-09-20T01:10:57.806Z,5.56
2022-09-20T01:11:57.821Z,5.67
2022-09-20T01:12:57.815Z,5.78
2022-09-20T01:13:57.803Z,5.78
2022-09-20T01:14:57.815Z,5.67
2022-09-20T01:15:57.820Z,5.67
2022-09-20T01:16:57.916Z,5.67
2022-09-20T01:17:57.806Z,5.78
2022-09-20T01:18:57.815Z,5.67
2022-09-20T01:19:57.825Z,5.56
2022-09-20T01:20:57.827Z,5.78
2022-09-20T01:21:57.826Z,5.67
2022-09-20T01:22:57.832Z,5.56
2022-09-20T01:23:57.832Z,5.78
2022-09-20T01:24:57.825Z,5.78
2022-09-20T01:25:57.864Z,5.94
2022-09-20T01:26:57.836Z,5.78
2022-09-20T01:27:57.828Z,5.67
2022-09-20T01:28:57.832Z,5.78
2022-09-20T01:29:57.835Z,5.78
2022-09-20T01:30:57.839Z,5.67
2022-09-20T01:31:57.955Z,5.67
2022-09-20T01:32:57.838Z,5.67
2022-09-20T01:33:57.835Z,5.78
2022-09-20T01:34:57.841Z,5.78
2022-09-20T01:35:57.841Z,5.78
2022-09-20T01:36:57.851Z,5.78
2022-09-20T01:37:57.838Z,5.78
2022-09-20T01:38:57.848Z,5.39
2022-09-20T01:39:57.851Z,5.56
2022-09-20T01:40:57.843Z,5.78
2022-09-20T01:41:57.869Z,5.56
2022-09-20T01:42:57.851Z,5.67
2022-09-20T01:43:57.849Z,5.78
2022-09-20T01:44:57.850Z,5.78
2022-09-20T01:45:57.873Z,5.78
2022-09-20T01:46:57.852Z,5.56
2022-09-20T01:47:57.852Z,5.39
2022-09-20T01:48:57.857Z,5.78
2022-09-20T01:49:57.855Z,5.56
2022-09-20T01:50:57.868Z,5.67
2022-09-20T01:51:57.865Z,5.78
2022-09-20T01:52:57.862Z,5.67
2022-09-20T01:53:57.871Z,5.67
2022-09-20T01:54:57.879Z,5.78
2022-09-20T01:55:57.865Z,5.78
2022-09-20T01:56:57.864Z,5.22
2022-09-20T01:57:57.891Z,5.78
2022-09-20T01:59:19.674Z,5.78
2022-09-20T01:59:57.870Z,5.56
2022-09-20T02:00:57.926Z,5.67
2022-09-20T02:01:57.918Z,5.67
2022-09-20T02:02:57.873Z,5.78
2022-09-20T02:03:57.884Z,5.56
2022-09-20T02:04:57.877Z,5.67
2022-09-20T02:05:57.875Z,5.78
2022-09-20T02:06:57.880Z,5.67
2022-09-20T02:07:57.882Z,5.39
2022-09-20T02:08:57.885Z,5.78
2022-09-20T02:09:57.887Z,5.56
2022-09-20T02:10:57.884Z,5.78
2022-09-20T02:11:57.885Z,5.78
2022-09-20T02:12:57.892Z,5.78
2022-09-20T02:13:57.922Z,5.56
2022-09-20T02:14:57.896Z,5.56
2022-09-20T02:15:57.886Z,5.78
2022-09-20T02:16:57.950Z,5.56
2022-09-20T02:17:57.887Z,5.94
2022-09-20T02:18:57.890Z,5.94
2022-09-20T02:19:57.894Z,5.78
2022-09-20T02:20:57.893Z,5.78
2022-09-20T02:21:57.892Z,5.67
2022-09-20T02:22:57.924Z,5.78
2022-09-20T02:23:57.890Z,5.67
2022-09-20T02:24:57.901Z,5.78
2022-09-20T02:25:57.892Z,5.78
2022-09-20T02:26:57.898Z,5.78
2022-09-20T02:27:57.901Z,5.67
2022-09-20T02:28:57.900Z,5.22
2022-09-20T02:29:57.922Z,5.78
2022-09-20T02:30:57.910Z,5.78
2022-09-20T02:31:57.967Z,5.78
2022-09-20T02:32:57.909Z,5.78
2022-09-20T02:33:57.906Z,5.56
2022-09-20T02:34:57.910Z,5.22
2022-09-20T02:35:57.907Z,5.56
2022-09-20T02:36:57.908Z,5.67
2022-09-20T02:37:57.911Z,5.56
2022-09-20T02:38:57.915Z,5.78
2022-09-20T02:39:57.970Z,5.56
2022-09-20T02:40:57.910Z,5.39
2022-09-20T02:41:57.905Z,5.67
2022-09-20T02:42:57.926Z,5.56
2022-09-20T02:43:57.911Z,5.67
2022-09-20T02:44:57.914Z,5.67
2022-09-20T02:45:57.973Z,5.56
2022-09-20T02:46:57.910Z,5.39
2022-09-20T02:47:57.913Z,5.39
2022-09-20T02:48:57.922Z,5.56
2022-09-20T02:49:57.923Z,5.39
2022-09-20T02:50:57.929Z,5.39
2022-09-20T02:51:57.916Z,5.67
2022-09-20T02:52:57.922Z,5.67
2022-09-20T02:53:57.925Z,5.78
2022-09-20T02:54:57.934Z,5.56
2022-09-20T02:55:57.924Z,5.56
2022-09-20T02:56:57.930Z,5.56
2022-09-20T02:57:57.934Z,5.67
2022-09-20T02:58:57.941Z,5.56
2022-09-20T02:59:57.933Z,5.39
2022-09-20T03:00:57.984Z,5.39
2022-09-20T03:01:57.989Z,5.56
2022-09-20T03:02:57.930Z,5.56
2022-09-20T03:03:57.926Z,5.39
2022-09-20T03:04:57.943Z,5.56
2022-09-20T03:05:57.946Z,5.67
2022-09-20T03:06:57.941Z,5.67
2022-09-20T03:07:57.933Z,5.56
2022-09-20T03:08:57.936Z,5.78
2022-09-20T03:09:57.942Z,5.56
2022-09-20T03:10:57.936Z,5.39
2022-09-20T03:11:57.935Z,5.56
2022-09-20T03:12:57.945Z,5.67
2022-09-20T03:13:57.940Z,5.39
2022-09-20T03:14:57.951Z,5.39
2022-09-20T03:15:57.935Z,5.67
2022-09-20T03:16:58.017Z,5.78
2022-09-20T03:17:57.966Z,5.78
2022-09-20T03:18:57.944Z,5.39
2022-09-20T03:19:57.944Z,5.78
2022-09-20T03:20:57.956Z,5.78
2022-09-20T03:21:57.941Z,5.67
2022-09-20T03:22:57.950Z,5.78
2022-09-20T03:23:57.949Z,5.78
2022-09-20T03:24:57.942Z,5.67
2022-09-20T03:25:57.948Z,5.78
2022-09-20T03:26:57.952Z,5.67
2022-09-20T03:27:57.938Z,5.78
2022-09-20T03:28:57.949Z,5.67
2022-09-20T03:29:57.953Z,5.67
2022-09-20T03:30:57.957Z,5.78
2022-09-20T03:31:57.997Z,5.56
2022-09-20T03:32:57.954Z,5.78
2022-09-20T03:33:57.989Z,5.78
2022-09-20T03:34:57.952Z,5.78
2022-09-20T03:35:57.950Z,5.78
2022-09-20T03:36:57.952Z,5.78
2022-09-20T03:37:57.957Z,5.78
2022-09-20T03:38:57.962Z,5.67
2022-09-20T03:39:57.973Z,5.94
2022-09-20T03:40:57.958Z,5.78
2022-09-20T03:41:57.951Z,5.78
2022-09-20T03:42:57.956Z,5.78
2022-09-20T03:43:57.954Z,5.78
2022-09-20T03:44:57.969Z,5.78
2022-09-20T03:45:58.011Z,5.78
2022-09-20T03:46:57.948Z,5.78
2022-09-20T03:47:57.951Z,5.56
2022-09-20T03:48:57.956Z,5.67
2022-09-20T03:49:57.987Z,5.67
2022-09-20T03:50:57.961Z,5.78
2022-09-20T03:51:57.959Z,5.56
2022-09-20T03:52:57.953Z,5.78
2022-09-20T03:53:57.960Z,5.78
2022-09-20T03:54:57.958Z,5.94
2022-09-20T03:55:57.962Z,5.67
2022-09-20T03:56:57.960Z,5.78
2022-09-20T03:57:57.958Z,5.56
2022-09-20T03:58:57.969Z,5.67
2022-09-20T03:59:57.964Z,5.67
2022-09-20T04:00:58.107Z,5.67
2022-09-20T04:01:57.996Z,5.78
2022-09-20T04:02:57.972Z,5.78
2022-09-20T04:03:57.978Z,5.94
2022-09-20T04:04:57.970Z,5.39
2022-09-20T04:05:57.999Z,5.67
2022-09-20T04:06:57.978Z,5.78
2022-09-20T04:07:57.982Z,5.67
2022-09-20T04:08:57.969Z,5.78
2022-09-20T04:09:57.982Z,5.56
2022-09-20T04:10:57.981Z,5.56
2022-09-20T04:11:57.985Z,5.67
2022-09-20T04:12:57.979Z,5.67
2022-09-20T04:13:57.981Z,5.56
2022-09-20T04:14:57.992Z,5.67
2022-09-20T04:15:57.985Z,5.67
2022-09-20T04:16:58.056Z,5.56
2022-09-20T04:17:57.984Z,5.78
2022-09-20T04:18:57.992Z,5.39
2022-09-20T04:19:57.995Z,5.78
2022-09-20T04:20:57.987Z,5.67
2022-09-20T04:21:58.017Z,5.78
2022-09-20T04:22:57.988Z,5.78
2022-09-20T04:23:57.992Z,5.56
2022-09-20T04:24:57.999Z,5.78
2022-09-20T04:25:57.993Z,5.56
2022-09-20T04:26:58.002Z,5.56
2022-09-20T04:27:57.998Z,5.67
2022-09-20T04:28:57.995Z,5.78
2022-09-20T04:29:57.996Z,5.78
2022-09-20T04:30:58.003Z,5.78
2022-09-20T04:31:58.083Z,5.78
2022-09-20T04:32:58.001Z,5.78
2022-09-20T04:33:58.012Z,5.78
2022-09-20T04:34:58.004Z,5.78
2022-09-20T04:35:58.010Z,5.67
2022-09-20T04:36:58.022Z,5.67
2022-09-20T04:37:58.042Z,5.67
2022-09-20T04:38:58.019Z,5.56
2022-09-20T04:39:58.059Z,5.67
2022-09-20T04:40:58.022Z,5.67
2022-09-20T04:41:58.024Z,5.78
2022-09-20T04:42:58.023Z,5.56
2022-09-20T04:43:58.024Z,5.78
2022-09-20T04:44:58.020Z,5.56
2022-09-20T04:45:58.143Z,5.78
2022-09-20T04:46:58.020Z,5.78
2022-09-20T04:47:58.037Z,5.56
2022-09-20T04:48:58.031Z,5.56
2022-09-20T04:49:58.036Z,5.78
2022-09-20T04:50:58.035Z,5.67
2022-09-20T04:51:58.039Z,5.67
2022-09-20T04:52:58.040Z,5.67
2022-09-20T04:53:58.063Z,5.67
2022-09-20T04:54:58.037Z,5.67
2022-09-20T04:55:58.045Z,5.78
2022-09-20T04:56:58.038Z,5.56
2022-09-20T04:57:58.048Z,5.67
2022-09-20T04:58:58.042Z,5.39
2022-09-20T04:59:58.051Z,5.56
2022-09-20T05:00:58.130Z,5.67
2022-09-20T05:01:58.072Z,5.67
2022-09-20T05:02:58.061Z,5.67
2022-09-20T05:03:58.060Z,5.78
2022-09-20T05:04:58.057Z,5.67
2022-09-20T05:05:58.055Z,5.56
2022-09-20T05:06:58.057Z,5.78
2022-09-20T05:07:58.069Z,5.67
2022-09-20T05:08:59.141Z,5.56
2022-09-20T05:09:58.089Z,5.67
2022-09-20T05:10:58.074Z,5.94
2022-09-20T05:11:58.069Z,5.67
2022-09-20T05:12:58.078Z,5.67
2022-09-20T05:13:58.063Z,5.78
2022-09-20T05:14:58.076Z,5.39
2022-09-20T05:15:58.080Z,5.67
2022-09-20T05:16:58.155Z,5.94
2022-09-20T05:17:58.072Z,5.56
2022-09-20T05:18:58.080Z,5.94
2022-09-20T05:19:58.088Z,5.56
2022-09-20T05:20:58.082Z,5.78
2022-09-20T05:21:58.082Z,5.78
2022-09-20T05:22:58.088Z,5.78
2022-09-20T05:23:58.080Z,5.78
2022-09-20T05:24:58.086Z,5.78
2022-09-20T05:25:58.110Z,5.67
2022-09-20T05:26:58.090Z,5.56
2022-09-20T05:27:58.091Z,5.78
2022-09-20T05:28:58.090Z,5.78
2022-09-20T05:29:58.956Z,5.78
2022-09-20T05:30:58.090Z,5.94
2022-09-20T05:31:58.170Z,5.67
2022-09-20T05:32:58.090Z,5.78
2022-09-20T05:33:58.097Z,5.56
2022-09-20T05:34:58.100Z,5.78
2022-09-20T05:35:58.096Z,5.78
2022-09-20T05:36:58.113Z,5.67
2022-09-20T05:37:58.102Z,5.78
2022-09-20T05:38:59.066Z,5.67
2022-09-20T05:39:58.156Z,5.67
2022-09-20T05:40:58.106Z,5.67
2022-09-20T05:41:58.131Z,5.78
2022-09-20T05:42:58.115Z,5.78
2022-09-20T05:43:58.124Z,5.94
2022-09-20T05:44:58.111Z,5.94
2022-09-20T05:45:58.166Z,5.78
2022-09-20T05:46:58.113Z,5.78
2022-09-20T05:47:58.173Z,5.78
2022-09-20T05:48:58.103Z,5.78
2022-09-20T05:49:58.116Z,5.67
2022-09-20T05:51:00.651Z,5.94
2022-09-20T05:51:58.103Z,5.78
2022-09-20T05:52:58.113Z,6.22
2022-09-20T05:53:58.126Z,5.78
2022-09-20T05:54:58.123Z,5.94
2022-09-20T05:55:58.123Z,5.78
2022-09-20T05:56:58.123Z,5.78
2022-09-20T05:57:58.152Z,5.94
2022-09-20T05:58:58.123Z,5.94
2022-09-20T05:59:58.128Z,5.94
2022-09-20T06:00:58.187Z,6.06
2022-09-20T06:01:58.181Z,6.06
2022-09-20T06:02:58.138Z,5.94
2022-09-20T06:03:58.127Z,6.06
2022-09-20T06:04:58.143Z,6.22
2022-09-20T06:05:58.134Z,6.22
2022-09-20T06:06:58.131Z,6.22
2022-09-20T06:07:58.122Z,6.06
2022-09-20T06:08:58.143Z,6.22
2022-09-20T06:09:58.141Z,6.22
2022-09-20T06:10:58.148Z,6.22
2022-09-20T06:11:58.143Z,6.06
2022-09-20T06:12:58.139Z,6.22
2022-09-20T06:13:58.177Z,6.22
2022-09-20T06:14:58.144Z,6.06
2022-09-20T06:15:58.149Z,6.22
2022-09-20T06:16:58.142Z,6.22
2022-09-20T06:17:58.150Z,6.06
2022-09-20T06:18:58.156Z,6.22
2022-09-20T06:19:58.150Z,6.22
2022-09-20T06:20:58.155Z,6.22
2022-09-20T06:22:00.938Z,6.22
2022-09-20T06:22:58.153Z,5.94
2022-09-20T06:23:58.152Z,6.22
2022-09-20T06:24:58.158Z,6.22
2022-09-20T06:25:58.150Z,5.78
2022-09-20T06:26:58.161Z,6.22
2022-09-20T06:27:58.149Z,6.22
2022-09-20T06:28:58.567Z,6.06
2022-09-20T06:29:58.196Z,6.22
2022-09-20T06:30:58.196Z,6.39
2022-09-20T06:31:58.151Z,6.39
2022-09-20T06:32:58.181Z,5.78
2022-09-20T06:33:58.156Z,6.39
2022-09-20T06:34:58.157Z,6.5
2022-09-20T06:35:59.137Z,6.67
2022-09-20T06:36:58.163Z,6.5
2022-09-20T06:37:58.173Z,6.22
2022-09-20T06:38:58.168Z,6.5
2022-09-20T06:39:58.188Z,6.67
2022-09-20T06:40:58.160Z,5.94
2022-09-20T06:41:58.165Z,6.67
2022-09-20T06:42:58.172Z,6.67
2022-09-20T06:43:58.173Z,6.67
2022-09-20T06:44:58.169Z,5.78
2022-09-20T06:45:58.232Z,6.5
2022-09-20T06:46:58.173Z,6.5
2022-09-20T06:47:58.178Z,6.78
2022-09-20T06:48:58.176Z,6.39
2022-09-20T06:49:58.169Z,6.67
2022-09-20T06:50:58.170Z,6.67
2022-09-20T06:51:58.172Z,6.22
2022-09-20T06:52:58.179Z,6.67
2022-09-20T06:53:58.179Z,6.67
2022-09-20T06:54:58.172Z,6.67
2022-09-20T06:55:58.189Z,6.39
2022-09-20T06:56:58.189Z,6.5
2022-09-20T06:57:58.177Z,7.11
2022-09-20T06:58:58.183Z,6.78
2022-09-20T06:59:58.189Z,6.94
2022-09-20T07:00:58.205Z,6.67
2022-09-20T07:01:58.227Z,6.78
2022-09-20T07:02:58.182Z,6.78
2022-09-20T07:03:58.187Z,6.78
2022-09-20T07:04:58.190Z,7.11
2022-09-20T07:05:58.190Z,7.11
2022-09-20T07:06:58.185Z,6.94
2022-09-20T07:07:58.190Z,7.11
2022-09-20T07:08:58.202Z,7.11
2022-09-20T07:09:58.196Z,6.94
2022-09-20T07:10:58.193Z,6.67
2022-09-20T07:11:58.198Z,6.67
2022-09-20T07:12:58.198Z,6.67
2022-09-20T07:13:58.237Z,6.67
2022-09-20T07:14:58.199Z,6.78
2022-09-20T07:15:58.203Z,6.94
2022-09-20T07:16:58.204Z,7.11
2022-09-20T07:17:58.232Z,7.11
2022-09-20T07:18:58.203Z,7.5
2022-09-20T07:19:58.202Z,7.11
2022-09-20T07:20:58.202Z,7.5
2022-09-20T07:21:58.204Z,7.67
2022-09-20T07:22:58.207Z,7.39
2022-09-20T07:23:58.205Z,7.11
2022-09-20T07:24:58.201Z,6.94
2022-09-20T07:25:58.224Z,7.22
2022-09-20T07:26:58.212Z,7.22
2022-09-20T07:27:58.213Z,7.5
2022-09-20T07:28:58.205Z,7.5
2022-09-20T07:29:58.206Z,7.39
2022-09-20T07:30:58.211Z,7.39
2022-09-20T07:31:58.273Z,7.5
2022-09-20T07:32:58.206Z,7.39
2022-09-20T07:33:58.232Z,7.94
2022-09-20T07:34:58.211Z,7.94
2022-09-20T07:35:58.211Z,7.78
2022-09-20T07:36:58.212Z,7.67
2022-09-20T07:37:58.216Z,7.5
2022-09-20T07:38:58.222Z,7.22
2022-09-20T07:39:58.243Z,7.11
2022-09-20T07:40:58.212Z,7.39
2022-09-20T07:41:58.210Z,6.78
2022-09-20T07:42:58.217Z,6.67
2022-09-20T07:43:58.214Z,6.94
2022-09-20T07:44:58.215Z,6.78
2022-09-20T07:45:58.267Z,6.94
2022-09-20T07:46:58.211Z,7.11
2022-09-20T07:47:58.224Z,7.11
2022-09-20T07:48:58.217Z,7.11
2022-09-20T07:49:58.244Z,6.94
2022-09-20T07:50:58.220Z,6.78
2022-09-20T07:51:58.220Z,7.11
2022-09-20T07:52:58.221Z,6.94
2022-09-20T07:53:58.221Z,7.11
2022-09-20T07:54:58.218Z,7.11
2022-09-20T07:55:58.222Z,7.11
2022-09-20T07:56:58.227Z,6.94
2022-09-20T07:57:58.224Z,6.94
2022-09-20T07:58:58.222Z,7.22
2022-09-20T07:59:58.222Z,7.5
2022-09-20T08:00:58.258Z,7.39
2022-09-20T08:01:58.256Z,7.39
2022-09-20T08:02:58.223Z,7.5
2022-09-20T08:03:58.229Z,7.39
2022-09-20T08:04:58.217Z,7.22
2022-09-20T08:05:58.247Z,7.39
2022-09-20T08:06:58.213Z,7.5
2022-09-20T08:07:58.227Z,7.5
2022-09-20T08:08:58.220Z,7.94
2022-09-20T08:09:58.217Z,7.78
2022-09-20T08:10:58.221Z,8.11
2022-09-20T08:11:58.425Z,8.39
2022-09-20T08:14:06.870Z,8.5
2022-09-20T08:14:58.225Z,8.61
2022-09-20T08:15:58.243Z,8.94
2022-09-20T08:16:58.268Z,8.78
2022-09-20T08:17:58.230Z,8.78
2022-09-20T08:18:58.225Z,8.5
2022-09-20T08:19:58.247Z,8.78
2022-09-20T08:20:58.243Z,8.28
2022-09-20T08:21:58.277Z,8.11
2022-09-20T08:23:19.719Z,8.28
2022-09-20T08:23:58.236Z,8.39
2022-09-20T08:24:58.246Z,8.11
2022-09-20T08:25:58.249Z,7.67
2022-09-20T08:26:58.246Z,7.67
2022-09-20T08:27:58.245Z,7.94
2022-09-20T08:28:58.242Z,7.5
2022-09-20T08:29:58.242Z,8.28
2022-09-20T08:30:58.239Z,7.94
2022-09-20T08:31:58.296Z,7.78
2022-09-20T08:32:58.242Z,8.11
2022-09-20T08:33:58.244Z,8.11
2022-09-20T08:34:58.250Z,7.94
2022-09-20T08:35:58.240Z,7.78
2022-09-20T08:36:58.248Z,7.94
2022-09-20T08:39:57.061Z,7.5
2022-09-20T08:39:58.935Z,7.67
2022-09-20T08:40:58.270Z,7.94
2022-09-20T08:41:58.251Z,7.78
2022-09-20T08:42:58.278Z,7.78
2022-09-20T08:43:58.259Z,7.78
2022-09-20T08:44:58.848Z,8.28
2022-09-20T08:45:58.272Z,8.11
2022-09-20T08:46:58.261Z,8.39
2022-09-20T08:47:58.952Z,8.39
2022-09-20T08:48:58.266Z,8.61
2022-09-20T08:49:58.261Z,8.78
2022-09-20T08:50:58.275Z,8.61
2022-09-20T08:51:58.273Z,8.78
2022-09-20T08:53:01.322Z,8.78
2022-09-20T08:53:58.307Z,8.78
2022-09-20T08:54:58.280Z,9.22
2022-09-20T08:55:58.284Z,9.39
2022-09-20T08:56:58.287Z,9.39
2022-09-20T08:57:58.285Z,9.06
2022-09-20T08:58:58.285Z,8.78
2022-09-20T08:59:58.294Z,9.06
2022-09-20T09:00:58.335Z,8.94
2022-09-20T09:01:58.307Z,8.78
2022-09-20T09:02:58.295Z,8.94
2022-09-20T09:03:58.295Z,9.06
2022-09-20T09:04:58.301Z,9.5
2022-09-20T09:05:58.291Z,9.67
2022-09-20T09:06:58.309Z,9.06
2022-09-20T09:07:58.302Z,9.5
2022-09-20T09:08:58.293Z,9.39
2022-09-20T09:09:58.325Z,9.39
2022-09-20T09:10:58.297Z,9.39
2022-09-20T09:11:58.296Z,8.78
2022-09-20T09:12:58.313Z,9.06
2022-09-20T09:13:58.309Z,8.61
2022-09-20T09:14:58.314Z,8.61
2022-09-20T09:15:58.315Z,8.94
2022-09-20T09:16:58.387Z,9.22
2022-09-20T09:17:58.316Z,9.22
2022-09-20T09:18:58.310Z,9.94
2022-09-20T09:19:58.316Z,9.78
2022-09-20T09:20:58.314Z,9.78
2022-09-20T09:21:58.314Z,10.56
2022-09-20T09:22:58.317Z,10.39
2022-09-20T09:23:58.327Z,9.94
2022-09-20T09:24:58.325Z,9.94
2022-09-20T09:25:58.357Z,9.94
2022-09-20T09:26:58.329Z,9.78
2022-09-20T09:27:58.326Z,9.94
2022-09-20T09:28:58.322Z,9.67
2022-09-20T09:29:58.334Z,9.06
2022-09-20T09:30:58.325Z,9.22
2022-09-20T09:31:58.430Z,9.67
2022-09-20T09:32:58.338Z,9.78
2022-09-20T09:33:58.333Z,9.67
2022-09-20T09:34:58.339Z,9.5
2022-09-20T09:35:58.333Z,9.39
2022-09-20T09:36:58.335Z,9.5
2022-09-20T09:37:58.344Z,9.67
2022-09-20T09:38:58.349Z,9.67
2022-09-20T09:39:58.409Z,9.06
2022-09-20T09:40:58.344Z,9.39
2022-09-20T09:41:58.380Z,8.94
2022-09-20T09:42:58.349Z,9.06
2022-09-20T09:43:58.355Z,9.22
2022-09-20T09:44:58.355Z,9.22
2022-09-20T09:45:58.450Z,9.22
2022-09-20T09:46:58.348Z,9.39
2022-09-20T09:47:58.355Z,9.06
2022-09-20T09:48:58.353Z,9.06
2022-09-20T09:50:01.002Z,8.94
2022-09-20T09:50:58.352Z,8.94
2022-09-20T09:51:58.357Z,8.94
2022-09-20T09:52:58.365Z,9.06
2022-09-20T09:53:58.361Z,9.22
2022-09-20T09:55:00.263Z,9.06
2022-09-20T09:55:58.359Z,8.78
2022-09-20T09:56:58.362Z,8.78
2022-09-20T09:57:58.391Z,8.94
2022-09-20T09:58:58.371Z,8.94
2022-09-20T09:59:58.441Z,8.78
2022-09-20T10:00:58.389Z,8.78
2022-09-20T10:01:58.388Z,8.78
2022-09-20T10:02:58.371Z,8.61
2022-09-20T10:03:58.373Z,8.78
2022-09-20T10:04:58.370Z,9.22
2022-09-20T10:05:58.378Z,9.39
2022-09-20T10:06:58.384Z,9.39
2022-09-20T10:07:58.381Z,9.94
2022-09-20T10:08:58.380Z,10.11
2022-09-20T10:09:58.380Z,10.22
2022-09-20T10:10:58.385Z,10.11
2022-09-20T10:11:58.380Z,9.94
2022-09-20T10:12:58.382Z,10.22
2022-09-20T10:13:58.413Z,9.67
2022-09-20T10:14:58.393Z,9.94
2022-09-20T10:15:58.382Z,10.11
2022-09-20T10:16:58.481Z,10.11
2022-09-20T10:17:58.387Z,10.22
2022-09-20T10:18:58.389Z,10.39
2022-09-20T10:19:58.387Z,10.67
2022-09-20T10:20:58.392Z,11
2022-09-20T10:21:58.383Z,10.67
2022-09-20T10:23:26.760Z,10.83
2022-09-20T10:24:03.413Z,11
2022-09-20T10:24:58.391Z,10.22
2022-09-20T10:25:58.401Z,9.94
2022-09-20T10:26:58.395Z,10.11
2022-09-20T10:27:58.402Z,10.11
2022-09-20T10:28:58.406Z,9.67
2022-09-20T10:29:58.431Z,9.39
2022-09-20T10:30:58.524Z,9.67
2022-09-20T10:31:58.411Z,9.78
2022-09-20T10:32:58.409Z,10.39
2022-09-20T10:33:58.408Z,10.39
2022-09-20T10:34:58.403Z,10.56
2022-09-20T10:35:58.418Z,9.78
2022-09-20T10:36:58.414Z,9.67
2022-09-20T10:37:58.401Z,9.5
2022-09-20T10:38:58.413Z,9.67
2022-09-20T10:39:58.426Z,9.78
2022-09-20T10:40:58.414Z,9.78
2022-09-20T10:41:58.424Z,9.94
2022-09-20T10:42:58.410Z,10.11
2022-09-20T10:44:02.925Z,9.94
2022-09-20T10:44:58.422Z,10.11
2022-09-20T10:46:58.495Z,9.94
2022-09-20T10:47:58.422Z,9.67
2022-09-20T10:48:58.426Z,10.11
2022-09-20T10:49:58.425Z,9.78
2022-09-20T10:50:58.418Z,9.67
2022-09-20T10:51:58.425Z,9.78
2022-09-20T10:52:58.429Z,9.67
2022-09-20T10:53:58.432Z,9.5
2022-09-20T10:54:58.426Z,9.5
2022-09-20T10:55:58.433Z,9.94
2022-09-20T10:56:58.428Z,9.67
2022-09-20T10:57:58.434Z,9.5
2022-09-20T10:58:58.436Z,9.67
2022-09-20T10:59:58.438Z,9.22
2022-09-20T11:00:58.586Z,9.06
2022-09-20T11:01:58.597Z,9.22
2022-09-20T11:02:58.443Z,9.06
2022-09-20T11:03:58.446Z,9.06
2022-09-20T11:04:58.440Z,9.22
2022-09-20T11:05:58.440Z,9.06
2022-09-20T11:06:58.444Z,9.22
2022-09-20T11:07:58.447Z,8.94
2022-09-20T11:08:58.514Z,9.22
2022-09-20T11:09:58.452Z,8.78
2022-09-20T11:10:58.450Z,8.61
2022-09-20T11:11:58.451Z,8.5
2022-09-20T11:12:58.461Z,8.28
2022-09-20T11:13:58.454Z,7.94
2022-09-20T11:14:58.459Z,7.94
2022-09-20T11:15:58.453Z,7.94
2022-09-20T11:16:58.478Z,7.67
2022-09-20T11:17:58.484Z,7.78
2022-09-20T11:18:58.452Z,7.94
2022-09-20T11:19:59.211Z,7.5
2022-09-20T11:20:58.444Z,7.5
2022-09-20T11:21:58.465Z,7.5
2022-09-20T11:22:58.451Z,6.94
2022-09-20T11:23:58.462Z,6.5
2022-09-20T11:24:58.457Z,6.72
2022-09-20T11:25:58.495Z,6.5
2022-09-20T11:26:58.457Z,6.67
2022-09-20T11:27:58.464Z,6.67
2022-09-20T11:28:58.464Z,6.67
2022-09-20T11:29:58.465Z,6.67
2022-09-20T11:30:58.460Z,6.78
2022-09-20T11:31:58.563Z,6.94
2022-09-20T11:32:58.466Z,7.11
2022-09-20T11:33:58.516Z,7.11
2022-09-20T11:34:58.479Z,7.39
2022-09-20T11:35:58.492Z,7.11
2022-09-20T11:36:58.489Z,7.11
2022-09-20T11:37:58.486Z,7.5
2022-09-20T11:38:58.475Z,7.22
2022-09-20T11:39:58.546Z,7.67
2022-09-20T11:40:58.471Z,7.39
2022-09-20T11:41:58.484Z,7.39
2022-09-20T11:42:58.470Z,7.39
2022-09-20T11:43:58.477Z,7.5
2022-09-20T11:44:58.482Z,7.5
2022-09-20T11:45:58.506Z,7.67
2022-09-20T11:46:58.481Z,7.78
2022-09-20T11:47:58.480Z,7.94
2022-09-20T11:48:58.488Z,7.94
2022-09-20T11:49:58.547Z,8.11
2022-09-20T11:50:58.476Z,8.28
2022-09-20T11:51:58.486Z,7.94
2022-09-20T11:52:58.477Z,7.94
2022-09-20T11:53:58.485Z,8.28
2022-09-20T11:54:58.487Z,8.39
2022-09-20T11:55:58.480Z,8.5
2022-09-20T11:56:58.480Z,9.06
2022-09-20T11:57:58.487Z,8.94
2022-09-20T11:58:58.485Z,9.06
2022-09-20T11:59:58.484Z,9.06
2022-09-20T12:00:58.478Z,9.39
2022-09-20T12:01:58.526Z,9.5
2022-09-20T12:02:58.562Z,9.22
2022-09-20T12:04:14.469Z,8.78
2022-09-20T12:04:58.496Z,8.78
2022-09-20T12:05:58.513Z,8.94
2022-09-20T12:06:58.483Z,8.94
2022-09-20T12:07:58.487Z,8.78
2022-09-20T12:08:58.487Z,8.61
2022-09-20T12:09:58.492Z,8.61
2022-09-20T12:10:58.489Z,8.78
2022-09-20T12:11:58.488Z,8.61
2022-09-20T12:12:58.492Z,9.22
2022-09-20T12:13:58.491Z,9.06
2022-09-20T12:14:58.493Z,8.78
2022-09-20T12:15:58.496Z,8.78
2022-09-20T12:16:58.494Z,8.78
2022-09-20T12:17:58.503Z,8.61
2022-09-20T12:18:58.490Z,8.78
2022-09-20T12:19:58.496Z,8.61
2022-09-20T12:20:58.494Z,8.61
2022-09-20T12:21:58.518Z,8.39
2022-09-20T12:22:58.495Z,8.39
2022-09-20T12:23:58.500Z,8.11
2022-09-20T12:24:58.491Z,7.94
2022-09-20T12:25:58.491Z,8.28
2022-09-20T12:26:58.496Z,8.11
2022-09-20T12:27:58.491Z,8.39
2022-09-20T12:28:58.487Z,8.28
2022-09-20T12:29:58.494Z,8.11
2022-09-20T12:30:58.499Z,8.61
2022-09-20T12:31:58.538Z,8.39
2022-09-20T12:32:58.490Z,8.61
2022-09-20T12:33:58.494Z,8.94
2022-09-20T12:34:58.489Z,8.61
2022-09-20T12:35:58.607Z,8.94
2022-09-20T12:36:58.499Z,8.61
2022-09-20T12:37:58.514Z,8.78
2022-09-20T12:38:58.498Z,8.78
2022-09-20T12:39:58.558Z,8.78
2022-09-20T12:40:58.502Z,8.61
2022-09-20T12:41:58.495Z,8.61
2022-09-20T12:42:58.501Z,8.5
2022-09-20T12:43:58.494Z,8.94
2022-09-20T12:44:58.508Z,8.94
2022-09-20T12:46:02.984Z,8.78
2022-09-20T12:46:58.514Z,9.06
2022-09-20T12:47:58.511Z,8.94
2022-09-20T12:48:58.514Z,8.94
2022-09-20T12:49:58.516Z,8.78
2022-09-20T12:50:58.511Z,8.78
2022-09-20T12:51:58.512Z,8.61
2022-09-20T12:52:58.538Z,8.61
2022-09-20T12:53:58.539Z,8.5
2022-09-20T12:55:03.257Z,8.39
2022-09-20T12:55:58.527Z,8.11
2022-09-20T12:56:58.522Z,7.67
2022-09-20T12:57:58.532Z,7.39
2022-09-20T12:58:58.531Z,7.5
2022-09-20T12:59:58.528Z,7.39
2022-09-20T13:00:58.557Z,7.39
2022-09-20T13:01:58.583Z,7.11
2022-09-20T13:02:58.542Z,7.5
2022-09-20T13:03:58.534Z,7.5
2022-09-20T13:04:58.541Z,7.5
2022-09-20T13:05:58.554Z,7.5
2022-09-20T13:06:58.540Z,7.39
2022-09-20T13:07:58.543Z,7.39
2022-09-20T13:08:58.548Z,7.39
2022-09-20T13:09:58.568Z,7.5
2022-09-20T13:10:58.544Z,7.5
2022-09-20T13:11:58.537Z,7.78
2022-09-20T13:12:58.546Z,7.5
2022-09-20T13:13:58.562Z,7.11
2022-09-20T13:14:58.545Z,7.11
2022-09-20T13:15:58.609Z,7.39
2022-09-20T13:16:58.559Z,7.5
2022-09-20T13:17:58.553Z,7.78
2022-09-20T13:18:58.561Z,7.5
2022-09-20T13:19:58.558Z,7.22
2022-09-20T13:20:58.560Z,7.94
2022-09-20T13:21:58.558Z,8.11
2022-09-20T13:23:00.386Z,7.78